Time;durP1;ratioP1;P1;durP2;ratioP2;P2;SDS_P1;SDS_P2;PMS_P1;PMS_P2;Temp;Humidity;BMP_temperature;BMP_pressure;BME280_temperature;BME280_humidity;BME280_pressure;Samples;Min_cycle;Max_cycle;Signal;HPM_P1;HPM_P2
2022/01/12 00:00:39;;;;;;;;;;;-0.20;99.90;;;;;;4982438;28;21173;-71
2022/01/12 00:03:07;;;;;;;;;;;-0.20;99.90;;;;;;4982423;28;20067;-71
2022/01/12 00:05:34;;;;;;;;;;;-0.20;99.90;;;;;;4983063;28;20216;-71
2022/01/12 00:08:01;;;;;;;;;;;-0.20;99.90;;;;;;4981261;28;20060;-70
2022/01/12 00:10:28;;;;;;;;;;;-0.20;99.90;;;;;;4984834;28;20191;-71
2022/01/12 00:12:55;;;;;;;;;;;-0.10;99.90;;;;;;4975084;28;20077;-71
2022/01/12 00:15:24;;;;;;;;;;;-0.10;99.90;;;;;;4965586;28;20180;-69
2022/01/12 00:17:51;;;;;;;;;;;-0.20;99.90;;;;;;4961881;28;20246;-68
2022/01/12 00:20:18;;;;;;;;;;;-0.20;99.90;;;;;;4963230;28;20100;-71
2022/01/12 00:22:45;;;;;;;;;;;-0.20;99.90;;;;;;4962539;28;20271;-69
2022/01/12 00:25:26;;;;;;;;;;;-0.30;99.90;;;;;;4962886;28;20069;-70
2022/01/12 00:33:30;;;;;;;;;;;-0.50;99.90;;;;;;4966504;28;20076;-71
2022/01/12 00:35:58;;;;;;;;;;;-0.50;99.90;;;;;;4966186;28;20171;-70
2022/01/12 00:38:29;;;;;;;;;;;-0.60;99.90;;;;;;4965875;28;20074;-70
2022/01/12 00:40:59;;;;;;;;;;;-0.60;99.90;;;;;;4966659;28;20386;-69
2022/01/12 00:43:29;;;;;;;;;;;-0.60;99.90;;;;;;4966173;28;21227;-70
2022/01/12 00:45:58;;;;;;;;;;;-0.60;99.90;;;;;;4966280;28;21085;-70
2022/01/12 00:48:26;;;;;;;;;;;-0.50;99.90;;;;;;4966083;28;20077;-70
2022/01/12 00:50:53;;;;;;;;;;;-0.50;99.90;;;;;;4965919;28;20096;-70
2022/01/12 00:53:21;;;;;;;;;;;-0.50;99.90;;;;;;4964841;28;20103;-70
2022/01/12 00:55:48;;;;;;;;;;;-0.50;99.90;;;;;;4966129;28;20070;-70
2022/01/12 00:58:15;;;;;;;;;;;-0.60;99.90;;;;;;4965524;28;20142;-70
2022/01/12 01:00:43;;;;;;;;;;;-0.60;99.90;;;;;;4965589;28;20174;-70
2022/01/12 01:03:11;;;;;;;;;;;-0.60;99.90;;;;;;4965363;28;20083;-70
2022/01/12 01:05:39;;;;;;;;;;;-0.70;99.90;;;;;;4965420;28;20199;-69
2022/01/12 01:08:07;;;;;;;;;;;-0.70;99.90;;;;;;4965249;28;20078;-69
2022/01/12 01:10:45;;;;;;;;;;;-0.70;99.90;;;;;;4966494;28;20063;-69
2022/01/12 01:13:14;;;;;;;;;;;-0.70;99.90;;;;;;4965414;28;20294;-69
2022/01/12 01:16:02;;;;;;;;;;;-0.60;99.90;;;;;;4965246;28;20060;-68
2022/01/12 01:26:46;;;;;;;;;;;-0.70;99.90;;;;;;4964804;28;20088;-70
2022/01/12 01:29:14;;;;;;;;;;;-0.70;99.90;;;;;;4964365;28;21169;-69
2022/01/12 01:31:43;;;;;;;;;;;-0.80;99.90;;;;;;4964921;28;20091;-70
2022/01/12 01:34:13;;;;;;;;;;;-0.80;99.90;;;;;;4965203;28;20075;-68
2022/01/12 01:36:43;;;;;;;;;;;-0.70;99.90;;;;;;4965416;28;20076;-69
2022/01/12 01:39:11;;;;;;;;;;;-0.70;99.90;;;;;;4964411;28;20061;-69
2022/01/12 01:41:42;;;;;;;;;;;-0.70;99.90;;;;;;4963732;28;20067;-69
2022/01/12 01:44:34;;;;;;;;;;;-0.60;99.90;;;;;;4965231;28;20278;-68
2022/01/12 01:55:26;;;;;;;;;;;-0.50;99.90;;;;;;4928830;28;20115;-69
2022/01/12 01:57:54;;;;;;;;;;;-0.50;99.90;;;;;;4964265;28;20084;-70
2022/01/12 02:00:23;;;;;;;;;;;-0.40;99.90;;;;;;4965308;28;20098;-70
2022/01/12 02:02:57;;;;;;;;;;;-0.40;99.90;;;;;;4963240;28;20060;-71
2022/01/12 02:05:49;;;;;;;;;;;-0.40;99.90;;;;;;4966569;28;20074;-70
2022/01/12 02:08:17;;;;;;;;;;;-0.30;99.90;;;;;;4964779;28;20109;-70
2022/01/12 02:10:56;;;;;;;;;;;-0.30;99.90;;;;;;4964704;28;20077;-70
2022/01/12 02:13:23;;;;;;;;;;;-0.20;99.90;;;;;;4964759;28;20130;-70
2022/01/12 02:15:51;;;;;;;;;;;-0.20;99.90;;;;;;4964955;28;20291;-68
2022/01/12 02:18:31;;;;;;;;;;;-0.10;99.90;;;;;;4963830;28;20084;-69
2022/01/12 02:40:46;;;;;;;;;;;0.20;99.90;;;;;;4906501;28;20190;-69
2022/01/12 02:43:16;;;;;;;;;;;0.10;99.90;;;;;;4939286;28;20208;-70
2022/01/12 02:51:16;;;;;;;;;;;-0.10;99.90;;;;;;4981713;28;20056;-71
2022/01/12 02:53:44;;;;;;;;;;;-0.10;99.90;;;;;;4971260;28;23038;-70
2022/01/12 02:56:15;;;;;;;;;;;-0.20;99.90;;;;;;4964632;28;20194;-69
2022/01/12 02:58:43;;;;;;;;;;;-0.20;99.90;;;;;;4964077;28;20958;-70
2022/01/12 03:03:54;;;;;;;;;;;-0.20;99.90;;;;;;4962238;28;20219;-70
2022/01/12 03:06:25;;;;;;;;;;;-0.20;99.90;;;;;;4964223;28;20151;-69
2022/01/12 03:08:55;;;;;;;;;;;-0.20;99.90;;;;;;4963626;28;20085;-70
2022/01/12 03:11:23;;;;;;;;;;;-0.30;99.90;;;;;;4963803;28;20258;-72
2022/01/12 03:13:53;;;;;;;;;;;-0.30;99.90;;;;;;4964007;28;20069;-69
2022/01/12 03:16:23;;;;;;;;;;;-0.30;99.90;;;;;;4963656;28;20109;-70
2022/01/12 03:18:52;;;;;;;;;;;-0.40;99.90;;;;;;4964075;28;20157;-69
2022/01/12 03:21:21;;;;;;;;;;;-0.40;99.90;;;;;;4964334;28;20078;-70
2022/01/12 03:23:48;;;;;;;;;;;-0.50;99.90;;;;;;4966396;28;20140;-69
2022/01/12 03:26:17;;;;;;;;;;;-0.50;99.90;;;;;;4967464;28;20202;-70
2022/01/12 03:28:52;;;;;;;;;;;-0.50;99.90;;;;;;4967536;28;20075;-69
2022/01/12 03:31:21;;;;;;;;;;;-0.50;99.90;;;;;;4967699;28;21147;-69
2022/01/12 03:33:55;;;;;;;;;;;-0.50;99.90;;;;;;4968583;28;20109;-70
2022/01/12 03:36:28;;;;;;;;;;;-0.60;99.90;;;;;;4969742;28;20083;-69
2022/01/12 03:38:57;;;;;;;;;;;-0.50;99.90;;;;;;4968910;28;20081;-70
2022/01/12 03:41:27;;;;;;;;;;;-0.50;99.90;;;;;;4969189;28;20212;-70
2022/01/12 03:43:54;;;;;;;;;;;-0.50;99.90;;;;;;4968288;28;20086;-71
2022/01/12 03:46:23;;;;;;;;;;;-0.50;99.90;;;;;;4968608;28;20069;-69
2022/01/12 03:48:50;;;;;;;;;;;-0.50;99.90;;;;;;4967057;28;20069;-69
2022/01/12 03:51:17;;;;;;;;;;;-0.50;99.90;;;;;;4968007;28;20093;-70
2022/01/12 03:53:45;;;;;;;;;;;-0.50;99.90;;;;;;4967069;28;20230;-69
2022/01/12 03:56:12;;;;;;;;;;;-0.50;99.90;;;;;;4967689;28;21094;-69
2022/01/12 03:58:41;;;;;;;;;;;-0.50;99.90;;;;;;4967239;28;20196;-70
2022/01/12 04:01:09;;;;;;;;;;;-0.40;99.90;;;;;;4964052;28;20076;-71
2022/01/12 04:03:40;;;;;;;;;;;-0.30;99.90;;;;;;4963489;28;20292;-70
2022/01/12 04:08:52;;;;;;;;;;;-0.20;99.90;;;;;;4967341;28;20048;-69
2022/01/12 04:11:19;;;;;;;;;;;-0.10;99.90;;;;;;4967407;28;20085;-71
2022/01/12 04:13:49;;;;;;;;;;;0.00;99.90;;;;;;4967328;28;20077;-70
2022/01/12 04:16:17;;;;;;;;;;;0.00;99.90;;;;;;4967001;28;20079;-70
2022/01/12 04:18:44;;;;;;;;;;;0.00;99.90;;;;;;4966478;28;20075;-70
2022/01/12 04:21:13;;;;;;;;;;;0.00;99.90;;;;;;4967079;28;20069;-71
2022/01/12 04:23:40;;;;;;;;;;;0.00;99.90;;;;;;4966969;28;20069;-70
2022/01/12 04:26:10;;;;;;;;;;;0.00;99.90;;;;;;4967148;28;20671;-71
2022/01/12 04:28:38;;;;;;;;;;;0.00;99.90;;;;;;4966514;28;21139;-70
2022/01/12 04:31:07;;;;;;;;;;;0.00;99.90;;;;;;4966289;28;20278;-70
2022/01/12 04:33:35;;;;;;;;;;;0.00;99.90;;;;;;4966895;28;21517;-71
2022/01/12 04:36:03;;;;;;;;;;;0.00;99.90;;;;;;4966629;28;20075;-71
2022/01/12 04:38:33;;;;;;;;;;;0.00;99.90;;;;;;4966369;28;20113;-71
2022/01/12 04:41:03;;;;;;;;;;;0.10;99.90;;;;;;4967348;28;20094;-70
2022/01/12 04:43:30;;;;;;;;;;;0.10;99.90;;;;;;4965930;28;20285;-69
2022/01/12 04:49:06;;;;;;;;;;;0.30;99.90;;;;;;4966788;28;20057;-70
2022/01/12 04:51:34;;;;;;;;;;;0.30;99.90;;;;;;4966840;28;20091;-70
2022/01/12 04:54:01;;;;;;;;;;;0.40;99.90;;;;;;4965259;28;20084;-70
2022/01/12 04:56:30;;;;;;;;;;;0.40;99.90;;;;;;4967102;28;21086;-69
2022/01/12 04:58:57;;;;;;;;;;;0.40;99.90;;;;;;4966258;28;20150;-70
2022/01/12 05:01:27;;;;;;;;;;;0.40;99.90;;;;;;4966040;28;20070;-69
2022/01/12 05:09:48;;;;;;;;;;;0.50;99.90;;;;;;4954048;28;20062;-69
2022/01/12 05:15:08;;;;;;;;;;;0.50;99.90;;;;;;4965640;28;20076;-70
2022/01/12 05:17:36;;;;;;;;;;;0.60;99.90;;;;;;4966222;28;20070;-70
2022/01/12 05:20:05;;;;;;;;;;;0.60;99.90;;;;;;4965424;28;20195;-69
2022/01/12 05:22:32;;;;;;;;;;;0.70;99.90;;;;;;4965705;28;20068;-71
2022/01/12 05:24:59;;;;;;;;;;;0.70;99.90;;;;;;4965581;28;20210;-70
2022/01/12 05:27:28;;;;;;;;;;;0.80;99.90;;;;;;4965810;28;20068;-69
2022/01/12 05:29:55;;;;;;;;;;;0.80;99.90;;;;;;4965419;28;21202;-71
2022/01/12 05:32:25;;;;;;;;;;;0.80;99.90;;;;;;4965712;28;20187;-70
2022/01/12 05:34:58;;;;;;;;;;;0.80;99.90;;;;;;4966370;28;20069;-71
2022/01/12 05:37:27;;;;;;;;;;;0.80;99.90;;;;;;4966889;28;21205;-70
2022/01/12 05:39:54;;;;;;;;;;;0.80;99.90;;;;;;4964946;28;20068;-71
2022/01/12 05:42:22;;;;;;;;;;;0.80;99.90;;;;;;4965809;28;21200;-72
2022/01/12 05:44:50;;;;;;;;;;;0.80;99.90;;;;;;4965834;28;20069;-71
2022/01/12 05:47:33;;;;;;;;;;;0.70;99.90;;;;;;4965852;28;20261;-70
2022/01/12 05:50:00;;;;;;;;;;;0.70;99.90;;;;;;4965240;28;20069;-70
2022/01/12 05:52:28;;;;;;;;;;;0.80;99.90;;;;;;4965692;28;20063;-69
2022/01/12 05:54:56;;;;;;;;;;;0.80;99.90;;;;;;4965415;28;20069;-70
2022/01/12 05:57:25;;;;;;;;;;;0.90;99.90;;;;;;4965595;28;20218;-70
2022/01/12 05:59:52;;;;;;;;;;;0.90;99.90;;;;;;4964722;28;20061;-71
2022/01/12 06:02:20;;;;;;;;;;;1.00;99.90;;;;;;4963228;28;20109;-71
2022/01/12 06:04:49;;;;;;;;;;;1.00;99.90;;;;;;4971446;28;20069;-69
2022/01/12 06:07:16;;;;;;;;;;;1.00;99.90;;;;;;4974178;28;20263;-70
2022/01/12 06:09:45;;;;;;;;;;;1.10;99.90;;;;;;4984594;28;20190;-69
2022/01/12 06:12:12;;;;;;;;;;;1.10;99.90;;;;;;4973792;28;20069;-70
2022/01/12 06:14:41;;;;;;;;;;;1.10;99.90;;;;;;4971931;28;20075;-71
2022/01/12 06:17:08;;;;;;;;;;;1.10;99.90;;;;;;4964527;28;21279;-70
2022/01/12 06:19:35;;;;;;;;;;;1.20;99.90;;;;;;4969801;28;20069;-71
2022/01/12 06:22:15;;;;;;;;;;;1.20;99.90;;;;;;4983893;28;20171;-72
2022/01/12 06:24:42;;;;;;;;;;;1.30;99.90;;;;;;4985052;28;20321;-70
2022/01/12 06:27:14;;;;;;;;;;;1.30;99.90;;;;;;4990117;28;20077;-71
2022/01/12 06:29:44;;;;;;;;;;;1.30;99.90;;;;;;4982320;28;20076;-71
2022/01/12 06:32:11;;;;;;;;;;;1.30;99.90;;;;;;4982748;28;20061;-70
2022/01/12 06:34:39;;;;;;;;;;;1.30;99.90;;;;;;4984437;28;20105;-70
2022/01/12 06:37:06;;;;;;;;;;;1.30;99.90;;;;;;4981359;28;20083;-71
2022/01/12 06:39:33;;;;;;;;;;;1.20;99.90;;;;;;4983328;28;21220;-70
2022/01/12 06:42:00;;;;;;;;;;;1.20;99.90;;;;;;4984908;28;21226;-70
2022/01/12 06:44:29;;;;;;;;;;;1.20;99.90;;;;;;4983208;28;20070;-71
2022/01/12 06:47:02;;;;;;;;;;;1.20;99.90;;;;;;4984095;28;20100;-71
2022/01/12 06:49:30;;;;;;;;;;;1.10;99.90;;;;;;4983790;28;20395;-72
2022/01/12 06:51:59;;;;;;;;;;;1.10;99.90;;;;;;4983442;28;20082;-70
2022/01/12 06:54:27;;;;;;;;;;;1.10;99.90;;;;;;4983683;28;21230;-70
2022/01/12 06:56:55;;;;;;;;;;;1.00;99.90;;;;;;4984330;28;20109;-71
2022/01/12 06:59:22;;;;;;;;;;;1.00;99.90;;;;;;4984075;28;20084;-71
2022/01/12 07:01:52;;;;;;;;;;;0.90;99.90;;;;;;4982205;28;20076;-71
2022/01/12 07:04:27;;;;;;;;;;;1.00;99.90;;;;;;4974485;28;20075;-71
2022/01/12 07:06:57;;;;;;;;;;;1.10;99.90;;;;;;4977348;28;21163;-71
2022/01/12 07:09:31;;;;;;;;;;;1.10;99.90;;;;;;4984109;28;20069;-71
2022/01/12 07:12:02;;;;;;;;;;;1.10;99.90;;;;;;4968456;28;21149;-71
2022/01/12 07:14:33;;;;;;;;;;;1.20;99.90;;;;;;4964858;28;21096;-70
2022/01/12 07:17:03;;;;;;;;;;;1.30;99.90;;;;;;4964021;28;20284;-70
2022/01/12 07:19:30;;;;;;;;;;;1.30;99.90;;;;;;4963868;28;20095;-70
2022/01/12 07:21:58;;;;;;;;;;;1.40;99.90;;;;;;4983727;28;20068;-71
2022/01/12 07:24:25;;;;;;;;;;;1.40;99.90;;;;;;4975180;28;21272;-70
2022/01/12 07:26:52;;;;;;;;;;;1.50;99.90;;;;;;4985173;28;20108;-71
2022/01/12 07:29:19;;;;;;;;;;;1.60;99.90;;;;;;4983597;28;20085;-71
2022/01/12 07:31:48;;;;;;;;;;;1.60;99.90;;;;;;4983348;28;20089;-70
2022/01/12 07:34:17;;;;;;;;;;;1.60;99.90;;;;;;4984450;28;20067;-71
2022/01/12 07:36:44;;;;;;;;;;;1.70;99.90;;;;;;4983955;28;20052;-70
2022/01/12 07:39:11;;;;;;;;;;;1.70;99.90;;;;;;4984145;28;20171;-70
2022/01/12 07:41:38;;;;;;;;;;;1.70;99.90;;;;;;4987588;28;20165;-69
2022/01/12 07:44:06;;;;;;;;;;;1.80;99.90;;;;;;4981760;28;20077;-71
2022/01/12 07:46:33;;;;;;;;;;;1.80;99.90;;;;;;4976781;28;20198;-69
2022/01/12 07:49:00;;;;;;;;;;;1.80;99.90;;;;;;4967894;28;20230;-71
2022/01/12 07:51:29;;;;;;;;;;;1.80;99.90;;;;;;4968119;28;20061;-71
2022/01/12 07:53:56;;;;;;;;;;;1.90;99.90;;;;;;4968112;28;20089;-71
2022/01/12 07:56:24;;;;;;;;;;;1.90;99.90;;;;;;4967768;28;20102;-71
2022/01/12 07:58:51;;;;;;;;;;;2.00;99.90;;;;;;4967478;28;20142;-71
2022/01/12 08:01:18;;;;;;;;;;;2.00;99.90;;;;;;4985594;28;21031;-71
2022/01/12 08:03:45;;;;;;;;;;;2.10;99.90;;;;;;5003186;28;21117;-69
2022/01/12 08:06:12;;;;;;;;;;;2.20;99.90;;;;;;4983560;28;20075;-71
2022/01/12 08:08:41;;;;;;;;;;;2.20;99.90;;;;;;4983944;28;21165;-71
2022/01/12 08:11:08;;;;;;;;;;;2.30;99.90;;;;;;4974855;28;20069;-70
2022/01/12 08:13:35;;;;;;;;;;;2.30;99.90;;;;;;4989116;28;21145;-71
2022/01/12 08:16:03;;;;;;;;;;;2.40;99.90;;;;;;4983617;28;20061;-71
2022/01/12 08:18:30;;;;;;;;;;;2.40;99.90;;;;;;4968830;28;20076;-71
2022/01/12 08:20:57;;;;;;;;;;;2.50;99.90;;;;;;4967737;28;21048;-71
2022/01/12 08:23:24;;;;;;;;;;;2.50;99.90;;;;;;4977672;28;20052;-71
2022/01/12 08:25:53;;;;;;;;;;;2.50;99.90;;;;;;4970218;28;20068;-71
2022/01/12 08:28:20;;;;;;;;;;;2.50;99.90;;;;;;4968834;28;20272;-71
2022/01/12 08:30:47;;;;;;;;;;;2.40;99.90;;;;;;4968988;28;21026;-71
2022/01/12 08:33:15;;;;;;;;;;;2.40;99.90;;;;;;4968008;28;21148;-70
2022/01/12 08:35:43;;;;;;;;;;;2.40;99.90;;;;;;4968719;28;20312;-71
2022/01/12 08:38:10;;;;;;;;;;;2.50;99.90;;;;;;4967625;28;20167;-71
2022/01/12 08:40:38;;;;;;;;;;;2.60;99.90;;;;;;4977801;28;20102;-69
2022/01/12 08:43:07;;;;;;;;;;;2.60;99.90;;;;;;4987216;28;20060;-71
2022/01/12 08:45:34;;;;;;;;;;;2.60;99.90;;;;;;4988465;28;20062;-71
2022/01/12 08:48:01;;;;;;;;;;;2.70;99.90;;;;;;4980368;28;20162;-70
2022/01/12 08:50:29;;;;;;;;;;;2.70;99.90;;;;;;4990286;28;20071;-70
2022/01/12 08:52:56;;;;;;;;;;;2.80;99.90;;;;;;4974422;28;20082;-71
2022/01/12 08:55:24;;;;;;;;;;;2.80;99.90;;;;;;4976577;28;21130;-70
2022/01/12 08:57:51;;;;;;;;;;;2.80;99.90;;;;;;4976353;28;20117;-71
2022/01/12 09:00:21;;;;;;;;;;;2.90;99.90;;;;;;4985344;28;20060;-73
2022/01/12 09:02:48;;;;;;;;;;;2.90;99.90;;;;;;4993531;28;21151;-72
2022/01/12 09:05:15;;;;;;;;;;;3.00;99.90;;;;;;4983207;28;20060;-71
2022/01/12 09:07:43;;;;;;;;;;;3.00;99.90;;;;;;4964973;28;20225;-70
2022/01/12 09:10:10;;;;;;;;;;;3.00;99.90;;;;;;4967707;28;20069;-71
2022/01/12 09:12:37;;;;;;;;;;;3.00;99.90;;;;;;4968011;28;21117;-71
2022/01/12 09:15:05;;;;;;;;;;;3.00;99.90;;;;;;4968284;28;20164;-72
2022/01/12 09:17:34;;;;;;;;;;;3.00;99.90;;;;;;4977607;28;20087;-71
2022/01/12 09:20:02;;;;;;;;;;;3.00;99.90;;;;;;4968087;28;20066;-72
2022/01/12 09:22:29;;;;;;;;;;;3.10;99.90;;;;;;4964617;28;21148;-71
2022/01/12 09:24:56;;;;;;;;;;;3.00;99.90;;;;;;4974614;28;20058;-72
2022/01/12 09:27:23;;;;;;;;;;;3.10;99.90;;;;;;4984792;28;21164;-71
2022/01/12 09:29:50;;;;;;;;;;;3.10;99.90;;;;;;4984210;28;20060;-71
2022/01/12 09:32:18;;;;;;;;;;;3.10;99.90;;;;;;4976758;28;21250;-69
2022/01/12 09:34:47;;;;;;;;;;;3.10;99.90;;;;;;4984157;28;20233;-70
2022/01/12 09:37:14;;;;;;;;;;;3.10;99.90;;;;;;4985039;28;20069;-70
2022/01/12 09:39:42;;;;;;;;;;;3.10;99.90;;;;;;4984321;28;20069;-70
2022/01/12 09:42:12;;;;;;;;;;;3.10;99.90;;;;;;4985106;28;20177;-70
2022/01/12 09:44:44;;;;;;;;;;;3.10;99.90;;;;;;4998030;28;20297;-71
2022/01/12 09:47:12;;;;;;;;;;;3.10;99.90;;;;;;4963977;28;20067;-71
2022/01/12 09:49:39;;;;;;;;;;;3.20;99.90;;;;;;4965033;28;20154;-71
2022/01/12 09:52:09;;;;;;;;;;;3.20;99.90;;;;;;4967568;28;20189;-70
2022/01/12 09:54:36;;;;;;;;;;;3.20;99.90;;;;;;4977377;28;20097;-72
2022/01/12 09:57:04;;;;;;;;;;;3.10;99.90;;;;;;4979620;28;20052;-71
2022/01/12 09:59:31;;;;;;;;;;;3.10;99.90;;;;;;4984286;28;20067;-71
2022/01/12 10:01:59;;;;;;;;;;;3.10;99.90;;;;;;4974613;28;20052;-71
2022/01/12 10:04:27;;;;;;;;;;;3.10;99.90;;;;;;4967963;28;21070;-70
2022/01/12 10:06:55;;;;;;;;;;;3.10;99.90;;;;;;4965970;28;21142;-67
2022/01/12 10:09:26;;;;;;;;;;;3.20;99.90;;;;;;4965513;28;20061;-71
2022/01/12 10:11:54;;;;;;;;;;;3.20;99.90;;;;;;4964753;28;21045;-70
2022/01/12 10:14:23;;;;;;;;;;;3.20;99.90;;;;;;4966186;28;20060;-70
2022/01/12 10:16:51;;;;;;;;;;;3.20;99.90;;;;;;4966180;28;20069;-70
2022/01/12 10:19:25;;;;;;;;;;;3.30;99.90;;;;;;4965745;28;20146;-70
2022/01/12 10:21:52;;;;;;;;;;;3.30;99.90;;;;;;4965653;28;20067;-70
2022/01/12 10:24:20;;;;;;;;;;;3.40;99.90;;;;;;4966212;28;20052;-71
2022/01/12 10:26:49;;;;;;;;;;;3.40;99.90;;;;;;4965997;28;20250;-70
2022/01/12 10:29:18;;;;;;;;;;;3.40;99.90;;;;;;4965162;28;21107;-72
2022/01/12 10:31:46;;;;;;;;;;;3.40;99.90;;;;;;4965457;28;20052;-71
2022/01/12 10:34:14;;;;;;;;;;;3.30;99.90;;;;;;4965293;28;20134;-70
2022/01/12 10:36:42;;;;;;;;;;;3.30;99.90;;;;;;4964935;28;20117;-67
2022/01/12 10:39:09;;;;;;;;;;;3.30;99.90;;;;;;4965254;28;21049;-71
2022/01/12 10:41:37;;;;;;;;;;;3.40;99.90;;;;;;4965430;28;20089;-71
2022/01/12 10:44:06;;;;;;;;;;;3.40;99.90;;;;;;4971603;28;20179;-73
2022/01/12 10:46:33;;;;;;;;;;;3.50;99.90;;;;;;4979531;28;20088;-71
2022/01/12 10:49:00;;;;;;;;;;;3.40;99.90;;;;;;4979285;28;20068;-71
2022/01/12 10:51:28;;;;;;;;;;;3.30;99.90;;;;;;4990111;28;20069;-70
2022/01/12 10:54:01;;;;;;;;;;;3.20;99.90;;;;;;4975720;28;20070;-71
2022/01/12 10:56:29;;;;;;;;;;;3.30;99.90;;;;;;4972468;28;20172;-70
2022/01/12 10:58:57;;;;;;;;;;;3.20;99.90;;;;;;4964147;28;21130;-71
2022/01/12 11:01:27;;;;;;;;;;;3.30;99.90;;;;;;4963956;28;21049;-70
2022/01/12 11:03:54;;;;;;;;;;;3.20;99.90;;;;;;4963664;28;20061;-71
2022/01/12 11:06:21;;;;;;;;;;;3.20;99.90;;;;;;4964335;28;20063;-71
2022/01/12 11:08:50;;;;;;;;;;;3.30;99.90;;;;;;4965874;28;20176;-70
2022/01/12 11:11:18;;;;;;;;;;;3.20;99.90;;;;;;4987426;28;21086;-69
2022/01/12 11:13:45;;;;;;;;;;;3.20;99.90;;;;;;4981645;28;20077;-69
2022/01/12 11:16:12;;;;;;;;;;;3.20;99.90;;;;;;4983914;28;20084;-70
2022/01/12 11:18:41;;;;;;;;;;;3.20;99.90;;;;;;4983055;28;20083;-71
2022/01/12 11:21:14;;;;;;;;;;;3.20;99.90;;;;;;4984444;28;20067;-70
2022/01/12 11:23:42;;;;;;;;;;;3.20;99.90;;;;;;4983018;28;20089;-70
2022/01/12 11:26:15;;;;;;;;;;;3.20;99.90;;;;;;4984014;28;20069;-69
2022/01/12 11:28:43;;;;;;;;;;;3.20;99.90;;;;;;4982803;28;20085;-72
2022/01/12 11:31:11;;;;;;;;;;;3.30;99.90;;;;;;4983325;28;20146;-71
2022/01/12 11:33:40;;;;;;;;;;;3.30;99.90;;;;;;4982790;28;21300;-72
2022/01/12 11:36:15;;;;;;;;;;;3.30;99.90;;;;;;4983372;28;20058;-71
2022/01/12 11:38:47;;;;;;;;;;;3.30;99.90;;;;;;4983509;28;20154;-69
2022/01/12 11:41:15;;;;;;;;;;;3.30;99.90;;;;;;4982647;28;20065;-71
2022/01/12 11:43:43;;;;;;;;;;;3.30;99.90;;;;;;4982455;28;21134;-72
2022/01/12 11:46:12;;;;;;;;;;;3.20;99.90;;;;;;4983450;28;20154;-69
2022/01/12 11:48:42;;;;;;;;;;;3.30;99.90;;;;;;4983160;28;20091;-73
2022/01/12 11:51:09;;;;;;;;;;;3.30;99.90;;;;;;4982791;28;20068;-72
2022/01/12 11:53:48;;;;;;;;;;;3.30;99.90;;;;;;4982401;28;20161;-70
2022/01/12 11:56:17;;;;;;;;;;;3.30;99.90;;;;;;4983348;28;20060;-71
2022/01/12 11:58:54;;;;;;;;;;;3.30;99.90;;;;;;4982437;28;21051;-70
2022/01/12 12:01:22;;;;;;;;;;;3.30;99.90;;;;;;4982951;28;20069;-72
2022/01/12 12:03:56;;;;;;;;;;;3.30;99.90;;;;;;4982527;28;20079;-72
2022/01/12 12:06:23;;;;;;;;;;;3.40;99.90;;;;;;4983402;28;20060;-71
2022/01/12 12:09:00;;;;;;;;;;;3.30;99.90;;;;;;4982218;28;20142;-72
2022/01/12 12:11:28;;;;;;;;;;;3.30;99.90;;;;;;4972172;28;20266;-72
2022/01/12 12:13:59;;;;;;;;;;;3.30;99.90;;;;;;4966915;28;20067;-72
2022/01/12 12:16:26;;;;;;;;;;;3.20;99.90;;;;;;4966181;28;20060;-72
2022/01/12 12:18:54;;;;;;;;;;;3.20;99.90;;;;;;4963045;28;20067;-71
2022/01/12 12:21:21;;;;;;;;;;;3.30;99.90;;;;;;4963526;28;20075;-72
2022/01/12 12:23:48;;;;;;;;;;;3.20;99.90;;;;;;4963948;28;20085;-71
2022/01/12 12:26:19;;;;;;;;;;;3.20;99.90;;;;;;4964131;28;20195;-71
2022/01/12 12:28:53;;;;;;;;;;;3.20;99.90;;;;;;4966347;28;20075;-71
2022/01/12 12:31:24;;;;;;;;;;;3.20;99.90;;;;;;4966986;28;20076;-71
2022/01/12 12:34:01;;;;;;;;;;;3.20;99.90;;;;;;4966591;28;20178;-70
2022/01/12 12:36:28;;;;;;;;;;;3.20;99.90;;;;;;4971557;28;20076;-72
2022/01/12 12:39:04;;;;;;;;;;;3.30;99.90;;;;;;4980770;28;20101;-75
2022/01/12 12:41:37;;;;;;;;;;;3.30;99.90;;;;;;4986180;28;20141;-74
2022/01/12 12:44:05;;;;;;;;;;;3.30;99.90;;;;;;4983334;28;20076;-68
2022/01/12 12:46:32;;;;;;;;;;;3.30;99.90;;;;;;4992943;28;20076;-72
2022/01/12 12:48:59;;;;;;;;;;;3.30;99.90;;;;;;4970605;28;21147;-72
2022/01/12 12:51:26;;;;;;;;;;;3.30;99.90;;;;;;4983578;28;21149;-72
2022/01/12 12:53:58;;;;;;;;;;;3.30;99.90;;;;;;4985856;28;21139;-73
2022/01/12 12:56:28;;;;;;;;;;;3.30;99.90;;;;;;4986870;28;20080;-73
2022/01/12 12:58:58;;;;;;;;;;;3.30;99.90;;;;;;4985158;28;20079;-71
2022/01/12 13:01:27;;;;;;;;;;;3.30;99.90;;;;;;4981202;28;20075;-73
2022/01/12 13:03:57;;;;;;;;;;;3.30;99.90;;;;;;4979388;28;20069;-71
2022/01/12 13:06:27;;;;;;;;;;;3.40;99.90;;;;;;4985464;28;20067;-70
2022/01/12 13:08:55;;;;;;;;;;;3.40;99.90;;;;;;4986653;28;21105;-69
2022/01/12 13:11:27;;;;;;;;;;;3.40;99.90;;;;;;4987073;28;21136;-70
2022/01/12 13:14:00;;;;;;;;;;;3.40;99.90;;;;;;4985779;28;21199;-71
2022/01/12 13:16:27;;;;;;;;;;;3.40;99.90;;;;;;4983549;28;20060;-71
2022/01/12 13:19:05;;;;;;;;;;;3.30;99.90;;;;;;4978066;28;20223;-72
2022/01/12 13:21:31;;;;;;;;;;;3.30;99.90;;;;;;4986140;28;20232;-72
2022/01/12 13:23:59;;;;;;;;;;;3.30;99.90;;;;;;4985661;28;20158;-72
2022/01/12 13:26:31;;;;;;;;;;;3.30;99.90;;;;;;4981698;28;20093;-71
2022/01/12 13:29:01;;;;;;;;;;;3.40;99.90;;;;;;4972068;28;20092;-71
2022/01/12 13:31:28;;;;;;;;;;;3.40;99.90;;;;;;4968313;28;20058;-71
2022/01/12 13:33:58;;;;;;;;;;;3.40;99.90;;;;;;4966246;28;21082;-71
2022/01/12 13:36:26;;;;;;;;;;;3.30;99.90;;;;;;4966441;28;20061;-72
2022/01/12 13:38:55;;;;;;;;;;;3.30;99.90;;;;;;4972072;28;20077;-70
2022/01/12 13:41:25;;;;;;;;;;;3.30;99.90;;;;;;4982078;28;20077;-72
2022/01/12 13:43:53;;;;;;;;;;;3.30;99.90;;;;;;4980168;28;20607;-69
2022/01/12 13:46:30;;;;;;;;;;;3.30;99.90;;;;;;4978779;28;20146;-72
2022/01/12 13:51:42;;;;;;;;;;;3.30;99.90;;;;;;4973657;28;20057;-72
2022/01/12 13:54:10;;;;;;;;;;;3.30;99.90;;;;;;4978249;28;20093;-72
2022/01/12 13:56:37;;;;;;;;;;;3.40;99.90;;;;;;4968994;28;20061;-71
2022/01/12 13:59:05;;;;;;;;;;;3.40;99.90;;;;;;4969075;28;20069;-71
2022/01/12 14:01:34;;;;;;;;;;;3.40;99.90;;;;;;4973866;28;20052;-71
2022/01/12 14:04:10;;;;;;;;;;;3.40;99.90;;;;;;4985142;28;21011;-71
2022/01/12 14:06:39;;;;;;;;;;;3.40;99.90;;;;;;4970951;28;21115;-71
2022/01/12 14:09:12;;;;;;;;;;;3.50;99.90;;;;;;4983924;28;21107;-72
2022/01/12 14:11:39;;;;;;;;;;;3.50;99.90;;;;;;4982061;28;20067;-71
2022/01/12 14:14:07;;;;;;;;;;;3.50;99.90;;;;;;4975275;28;20114;-70
2022/01/12 14:16:38;;;;;;;;;;;3.50;99.90;;;;;;4973022;28;20075;-72
2022/01/12 14:19:05;;;;;;;;;;;3.60;99.90;;;;;;4964187;28;21266;-69
2022/01/12 14:21:32;;;;;;;;;;;3.60;99.90;;;;;;4964940;28;20061;-71
2022/01/12 14:23:59;;;;;;;;;;;3.50;99.90;;;;;;4964614;28;20068;-70
2022/01/12 14:26:29;;;;;;;;;;;3.60;99.90;;;;;;4965484;28;20061;-70
2022/01/12 14:28:57;;;;;;;;;;;3.60;99.90;;;;;;4964322;28;20058;-70
2022/01/12 14:31:24;;;;;;;;;;;3.60;99.90;;;;;;4965480;28;20060;-69
2022/01/12 14:33:57;;;;;;;;;;;3.60;99.90;;;;;;4962875;28;24016;-70
2022/01/12 14:36:25;;;;;;;;;;;3.60;99.90;;;;;;4964853;28;20666;-71
2022/01/12 14:38:52;;;;;;;;;;;3.60;99.90;;;;;;4964674;28;20120;-70
2022/01/12 14:41:19;;;;;;;;;;;3.60;99.90;;;;;;4965350;28;20167;-71
2022/01/12 14:43:47;;;;;;;;;;;3.60;99.90;;;;;;4964209;28;20091;-68
2022/01/12 14:46:14;;;;;;;;;;;3.60;99.90;;;;;;4964680;28;20068;-73
2022/01/12 14:48:41;;;;;;;;;;;3.50;99.90;;;;;;4963321;28;20069;-72
2022/01/12 14:51:10;;;;;;;;;;;3.50;99.90;;;;;;4964766;28;20150;-71
2022/01/12 14:53:37;;;;;;;;;;;3.50;99.90;;;;;;4963988;28;20078;-71
2022/01/12 14:56:05;;;;;;;;;;;3.50;99.90;;;;;;4964026;28;20077;-71
2022/01/12 14:58:33;;;;;;;;;;;3.40;99.90;;;;;;4963736;28;20151;-71
2022/01/12 15:01:01;;;;;;;;;;;3.50;99.90;;;;;;4964815;28;20069;-70
2022/01/12 15:03:29;;;;;;;;;;;3.50;99.90;;;;;;4964420;28;20083;-72
2022/01/12 15:05:58;;;;;;;;;;;3.40;99.90;;;;;;4965111;28;20104;-68
2022/01/12 15:08:26;;;;;;;;;;;3.40;99.90;;;;;;4964872;28;20093;-71
2022/01/12 15:10:54;;;;;;;;;;;3.40;99.90;;;;;;4964857;28;20078;-71
2022/01/12 15:13:23;;;;;;;;;;;3.40;99.90;;;;;;4979976;28;20096;-72
2022/01/12 15:15:51;;;;;;;;;;;3.40;99.90;;;;;;4981110;28;20134;-71
2022/01/12 15:18:19;;;;;;;;;;;3.40;99.90;;;;;;4981152;28;20077;-74
2022/01/12 15:20:46;;;;;;;;;;;3.40;99.90;;;;;;4963734;28;20067;-73
2022/01/12 15:23:13;;;;;;;;;;;3.40;99.90;;;;;;4990695;28;20077;-79
2022/01/12 15:25:42;;;;;;;;;;;3.40;99.90;;;;;;5000177;28;20117;-71
2022/01/12 15:28:09;;;;;;;;;;;3.40;99.90;;;;;;4983314;28;20090;-73
2022/01/12 15:30:37;;;;;;;;;;;3.30;99.90;;;;;;4983634;28;20141;-72
2022/01/12 15:33:05;;;;;;;;;;;3.30;99.90;;;;;;4984050;28;20170;-72
2022/01/12 15:35:32;;;;;;;;;;;3.30;99.90;;;;;;4984669;28;20286;-73
2022/01/12 15:38:02;;;;;;;;;;;3.30;99.90;;;;;;4983525;28;20069;-72
2022/01/12 15:40:29;;;;;;;;;;;3.30;99.90;;;;;;4982765;28;20129;-72
2022/01/12 15:42:58;;;;;;;;;;;3.30;99.90;;;;;;4983828;28;20074;-73